Highlands Peak, California Weather observations

Data are for observation ending at time listed.
 Day   Time    Ave.   Ave.  Ave.  Vector   Max.   Stn.    Total    Solar   Ave.  
  of    of     Air    Rel.  Wind   Wind    Wind   Baro.  Precip.   Rad.    Soil  
Year   Day     Temp.  Hum.  Speed  Dir.    Gust   Pres.                    Temp. 
2017   (PST)    F      %     mph   deg.    mph     mb.     in.     W/m2     F   
------------------------------------------------------------------------------
 113    2:50   54.7    64    0.9   297      2.0   926.7    0.00       0    62.4
 113    3:00   54.7    62    1.7   325      2.1   926.7    0.00       0    62.3
 113    3:10   54.9    59    1.5    29      2.0   926.8    0.00       0    62.2
 113    3:20   55.1    60    0.4   282      1.5   927.0    0.00       0    62.1
 113    3:30   54.9    62    3.8   163      5.5   926.9    0.00       0    61.9
 113    3:40   53.3    68    2.1   253      4.5   926.9    0.00       0    61.8
 113    3:50   52.9    65    1.9   340      5.3   927.0    0.00       0    61.7
 113    4:00   51.4    72    4.6   346      5.8   926.9    0.00       0    61.6
 113    4:10   51.4    67    4.6    42      6.2   926.8    0.00       0    61.5
 113    4:20   52.8    62    3.1     1      4.7   926.8    0.00       0    61.4
 113    4:30   52.8    64    2.8   305      3.9   926.8    0.00       0    61.3
 113    4:40   52.9    62    2.5    46      4.7   926.8    0.00       0    61.2
 113    4:50   53.5    63    2.4   320      4.5   927.0    0.00       0    61.1
 113    5:00   53.3    63    1.7   297      2.9   927.0    0.00       0    61.0
 113    5:10   53.2    63    1.9     3      3.6   927.2    0.00       0    60.9
 113    5:20   53.5    62    2.9    45      5.0   927.2    0.00       1    60.7
 113    5:30   53.7    59    2.8   324      5.0   927.2    0.00       4    60.6
 113    5:40   53.3    59    0.8   264      1.8   927.3    0.00      17    60.5
 113    5:50   53.5    60    2.6   315      4.2   927.4    0.00      35    60.4
 113    6:00   52.6    65    3.4   132      5.1   927.5    0.00      46    60.3
 113    6:10   51.4    71    5.2   133      6.1   927.5    0.00      56    60.0
 113    6:20   51.1    72    5.0   115      5.8   927.5    0.00      69    59.7
 113    6:30   52.4    66    2.2   157      4.0   927.6    0.00      87    59.7
 113    6:40   52.8    65    2.2   232      4.4   927.7    0.00      93    59.8
 113    6:50   52.0    69    2.2    99      4.2   927.7    0.00     112    59.8
 113    7:00   53.1    65    1.2   194      4.2   927.7    0.00     147    59.7
 113    7:10   54.4    61    2.3   166      3.7   927.8    0.00     275    59.6
 113    7:20   55.3    62    3.4   170      5.0   927.9    0.00     305    59.5
 113    7:30   55.7    65    4.3   162      6.0   928.0    0.00     341    59.5
 113    7:40   55.7    66    2.7   216      4.3   928.1    0.00     404    59.4
 113    7:50   54.9    68    1.3   273      2.4   928.2    0.00     404    59.4
 113    8:00   54.9    68    2.0   255      3.4   928.2    0.00     457    59.4
 113    8:10   54.8    68    2.1   270      3.3   928.3    0.00     494    59.5
 113    8:20   54.9    66    0.9   276      3.0   928.4    0.00     434    59.5
 113    8:30   55.8    63    2.0   247      3.9   928.4    0.00     501    59.6
 113    8:40   55.6    53    3.1   271      4.9   928.3    0.00     535    59.7
 113    8:50   55.4    57    3.5   269      5.3   928.5    0.00     494    59.9
 113    9:00   55.2    48    2.2   252      3.2   928.6    0.00     539    60.0
 113    9:10   55.8    51    2.9   250      4.4   928.6    0.00     762    60.1
 113    9:20   56.8    55    4.1   248      6.4   928.7    0.00     829    60.3
 113    9:30   56.6    56    4.3   256      5.7   928.8    0.00     847    60.4
 113    9:40   56.6    57    3.9   250      6.6   928.9    0.00     864    60.6
 113    9:50   57.0    57    4.6   259      6.6   929.1    0.00     884    60.8
 113   10:00   56.9    61    4.1   262      6.3   929.2    0.00     907    61.0
 113   10:10   57.4    57    4.0   260      6.3   929.3    0.00     922    61.3
 113   10:20   57.4    59    4.0   256      5.8   929.3    0.00     941    61.5
 113   10:30   58.0    61    4.3   261      6.8   929.4    0.00     926    61.7
 113   10:40   57.0    64    4.8   256      8.3   929.5    0.00     905    62.0
 113   10:50   57.1    64    4.6   269      8.0   929.5    0.00     945    62.2
 113   11:00   56.8    62    4.6   256      8.3   929.6    0.00     964    62.4
 113   11:10   57.5    54    5.4   248      7.5   929.5    0.00     945    62.6
 113   11:20   58.0    51    4.8   261      7.7   929.4    0.00     989    62.8
 113   11:30   58.2    52    4.9   258      7.5   929.4    0.00     985    63.1
 113   11:40   58.2    54    4.7   250      7.9   929.4    0.00     981    63.3
 113   11:50   58.0    55    4.9   260      8.6   929.5    0.00    1016    63.6
 113   12:00   58.4    49    6.0   279      9.3   929.6    0.00     999    63.8
 113   12:10   58.1    47    4.3   258      7.2   929.6    0.00    1017    64.0
 113   12:20   58.0    48    3.5   251      7.0   929.5    0.00    1009    64.3
 113   12:30   58.7    50    4.5   266      8.3   929.4    0.00    1008    64.5
 113   12:40   58.8    49    3.7   255      6.8   929.4    0.00    1008    64.8
 113   12:50   59.7    53    4.0   270      7.4   929.4    0.00    1019    65.0
 113   13:00   59.7    57    5.0   258      7.7   929.4    0.00     992    65.3
 113   13:10   58.5    66    5.5   267      9.3   929.5    0.00     989    65.6
 113   13:20   57.5    68    3.7   244      8.0   929.5    0.00     966    66.0
 113   13:30   58.3    67    5.2   254      9.1   929.5    0.00     949    66.4
 113   13:40   56.4    71    4.9   262      9.7   929.6    0.00     947    66.8
 113   13:50   57.3    68    3.0   258      6.6   929.5    0.00     913    67.2
 113   14:00   60.6    61    2.8   244      7.5   929.4    0.00     879    67.5
 113   14:10   60.0    55    2.5   238      7.2   929.3    0.00     879    67.9
 113   14:20   61.4    56    4.6   251      7.4   929.2    0.00     858    68.3
 113   14:30   61.3    56    3.6   258      7.5   929.1    0.00     840    68.6
 113   14:40   60.2    62    4.0   248      7.5   928.9    0.00     823    69.0
 113   14:50   59.5    66    6.1   267     10.4   928.9    0.00     784    69.4
 113   15:00   58.5    68    3.6   230      8.6   928.9    0.00     723    69.6
 113   15:10   57.6    69    4.3   134      7.5   928.8    0.00     735    70.0
 113   15:20   58.2    68    2.3   155      6.1   928.8    0.00     693    70.2
 113   15:30   58.0    68    3.9   272      7.5   928.7    0.00     667    70.5
 113   15:40   57.6    70    1.6   208      4.7   928.6    0.00     638    70.7
 113   15:50   58.3    67    2.6   146      5.6   928.6    0.00     437    70.9
 113   16:00   56.4    72    2.3   275      4.8   928.6    0.00     423    71.1
 113   16:10   57.1    71    2.3   279      8.3   928.6    0.00     516    71.3
 113   16:20   58.2    68    2.5   286      5.8   928.6    0.00     502    71.4
 113   16:30   58.4    66    2.7   278      5.4   928.6    0.00     362    71.5
 113   16:40   55.3    72    2.2   338      6.6   928.6    0.00     157    71.6
 113   16:50   55.8    69    2.8   321      5.8   928.5    0.00     271    71.6
 113   17:00   58.4    60    4.5   305      9.3   928.4    0.00     365    71.6
 113   17:10   59.0    62    5.0   282      7.5   928.4    0.00     324    71.7
 113   17:20   58.7    62    4.0   294      6.5   928.4    0.00     258    71.7
 113   17:30   58.3    60    5.0   303      9.3   928.3    0.00     130    71.6
 113   17:40   57.7    53    5.8   315      9.8   928.3    0.00     165    71.5
 113   17:50   59.2    50    4.6   290      8.0   928.2    0.00     171    71.4
 113   18:00   58.0    50    6.4   296     10.2   928.2    0.00      53    71.3
 113   18:10   56.8    51    3.6   330      8.6   928.2    0.00      44    71.2
 113   18:20   56.4    46    2.5   321      8.0   928.2    0.00      44    71.1
 113   18:30   56.3    43    2.6   230      7.7   928.2    0.00      30    71.0
 113   18:40   56.0    42    3.5   246      8.3   928.1    0.00      18    70.8
 113   18:50   54.9    47    3.5   264      7.2   928.1    0.00       7    70.7
 113   19:00   54.7    44    2.8   304      6.1   928.2    0.00       1    70.5
 113   19:10   55.6    36    3.9   345      6.1   928.2    0.00       0    70.4
 113   19:20   55.9    33    4.1    23      6.9   928.2    0.00       0    70.1
 113   19:30   56.3    30    5.1   342      8.3   928.3    0.00       0    69.9
 113   19:40   56.2    30    6.4   326      9.3   928.4    0.00       0    69.7
 113   19:50   54.8    43    6.0   294      8.9   928.5    0.00       0    69.5
 113   20:00   54.0    46    4.8   296      8.8   928.7    0.00       0    69.3
 113   20:10   53.5    44    4.4   352      7.2   928.7    0.00       0    69.0
 113   20:20   55.7    29    6.2   348     10.8   928.7    0.00       0    68.8
 113   20:30   56.4    26    5.7   339      9.3   928.6    0.00       0    68.5
 113   20:40   56.9    21    7.6   327     12.3   928.7    0.00       0    68.2
 113   20:50   56.3    22    3.7   328     10.9   928.7    0.00       0    67.9
 113   21:00   55.2    26    7.1   313     15.3   928.8    0.00       0    67.7
 113   21:10   54.6    31    9.6   321     15.5   929.0    0.00       0    67.4
 113   21:20   53.8    34    7.2   318     10.0   929.0    0.00       0    67.2
 113   21:30   53.7    32    7.0   330     11.4   928.9    0.00       0    67.0
 113   21:40   55.0    24    5.2   338     12.1   928.8    0.00       0    66.7
 113   21:50   54.3    33    6.1   289     10.2   929.0    0.00       0    66.5
 113   22:00   53.8    32    6.7   307     13.8   929.0    0.00       0    66.3
 113   22:10   53.1    37    8.9   302     13.7   929.1    0.00       0    66.1
 113   22:20   51.4    50    7.5   294     11.1   929.1    0.00       0    65.9
 113   22:30   50.9    48    6.8   322     10.4   929.1    0.00       0    65.8
 113   22:40   52.5    35    6.2   312     10.4   928.8    0.00       0    65.6
 113   22:50   53.3    29    4.9   293      8.6   928.8    0.00       0    65.4
 113   23:00   54.0    26    4.0   302      9.3   928.9    0.00       0    65.2
 113   23:10   54.4    24    8.2   320     11.9   928.9    0.00       0    65.0
 113   23:20   54.1    24    6.2   324     10.0   928.8    0.00       0    64.8
 113   23:30   55.2    20    5.7   348     13.5   928.7    0.00       0    64.6
 113   23:40   55.8    19    4.9   335      9.9   928.7    0.00       0    64.4
 113   23:50   55.4    19    6.9   316     10.2   928.7    0.00       0    64.2
 114    0:00   55.5    19    7.1   315     10.5   928.7    0.00       0    64.0
 114    0:10   54.2    21    7.8   315      9.9   928.8    0.00       0    63.9
 114    0:20   54.7    19    6.0   321      9.6   928.7    0.00       0    63.8
 114    0:30   54.3    20    6.7   311     10.2   928.7    0.00       0    63.6
 114    0:40   53.6    22    7.6   313      9.9   928.7    0.00       0    63.5
 114    0:50   54.5    20    8.3   313     11.1   928.6    0.00       0    63.4
 114    1:00   55.0    20    6.2   324     11.0   928.6    0.00       0    63.2
 114    1:10   55.0    21    6.4   343      8.6   928.6    0.00       0    63.0
 114    1:20   55.4    20    7.0   332     14.8   928.3    0.00       0    62.9
 114    1:30   55.5    21    8.6   299     14.0   928.2    0.00       0    62.7
 114    1:40   53.5    25    5.8   291      8.8   928.3    0.00       0    62.6
 114    1:50   53.0    24    6.3   319     10.9   928.2    0.00       0    62.5
 114    2:00   54.6    23    5.9   314      8.8   928.2    0.00       0    62.3
 114    2:10   55.2    22    6.0   315     10.7   928.3    0.00       0    62.2
 114    2:20   55.4    21    7.4   314     11.9   928.2    0.00       0    62.1
 114    2:30   55.4    21    7.9   307     11.2   928.2    0.00       0    62.0
 114    2:40   55.1    21    7.6   306     13.8   928.2    0.00       0    61.8

Return to Highlands Peak graphs page.


Western Regional Climate Center,wrcc@dri.edu